KAFF/AFF METAR and TAF weather

Enter ICAO airport designator
Station Type Date Time Source
KAFF METAR 2019/04/19 21:56 UTC NOAA

KAFF 192156Z AUTO 21005G15KT 10SM CLR 20/M04 A3010 RMK AO2 SLP158 T01971039 $


Station Type Date Time Source
KAFF Decoded METAR 2019/04/19 21:56 UTC NOAA

Air Force Academy, CO, United States (KAFF) 38-58N 104-49W 1999M
Apr 19, 2019 - 05:56 PM EDT / 2019.04.19 2156 UTC
Wind: from the SSW (210 degrees) at 6 MPH (5 KT) gusting to 17 MPH (15 KT):0
Visibility: 10 mile(s):0
Sky conditions: clear
Temperature: 67.5 F (19.7 C)
Dew Point: 25.0 F (-3.9 C)
Relative Humidity: 19%
Pressure (altimeter): 30.1 in. Hg (1019 hPa)
ob: KAFF 192156Z AUTO 21005G15KT 10SM CLR 20/M04 A3010 RMK AO2 SLP158 T01971039
cycle: 22

Station Type Date Time Source
KAFF TAF 2019/04/19 19:15 UTC NOAA

TAF TAF KAFF 191904Z 1919/2101 16012KT 9999 FEW200 QNH3007INS
BECMG 2001/2002 36009KT 9999 SKC 520009 QNH3002INS
BECMG 2009/2010 VRB06KT 9999 SCT200 520105 QNH2995INS WND 220V060
TEMPO 2013/2016 27012G18KT 520009
BECMG 2017/2018 16012G18KT 9999 SCT200 520009 QNH2990INS
TEMPO 2019/2022 23012G20KT
BECMG 2021/2022 23012G20KT 9999 -SHRA BKN050 520009 QNH2988INS TX19/1922Z TN00/2012Z LAST NO
AMDS AFT 2002 NEXT 2011

Example: see airport list